createdAt,value
2019-06-27T00:01:37.567Z,62.80
2019-06-27T00:06:42.251Z,62.30
2019-06-27T00:11:52.527Z,62.70
2019-06-27T00:16:57.265Z,62.80
2019-06-27T00:22:00.636Z,62.70
2019-06-27T00:27:07.720Z,63.10
2019-06-27T00:32:09.079Z,63.10
2019-06-27T00:37:10.564Z,63.30
2019-06-27T00:42:17.655Z,63.30
2019-06-27T00:47:44.863Z,63.40
2019-06-27T00:52:52.727Z,63.50
2019-06-27T00:58:21.703Z,63.50
2019-06-27T01:03:28.865Z,63.50
2019-06-27T01:08:55.046Z,64.30
2019-06-27T01:14:03.577Z,63.40
2019-06-27T01:19:07.951Z,63.70
2019-06-27T01:24:12.484Z,63.50
2019-06-27T01:29:19.696Z,63.50
2019-06-27T01:34:31.416Z,63.70
2019-06-27T01:39:33.328Z,63.80
2019-06-27T01:44:42.557Z,63.90
2019-06-27T01:49:46.890Z,64.00
2019-06-27T01:54:51.424Z,63.90
2019-06-27T02:00:17.972Z,63.80
2019-06-27T02:05:41.275Z,64.00
2019-06-27T02:10:59.226Z,63.90
2019-06-27T02:16:11.663Z,63.90
2019-06-27T02:21:12.896Z,64.20
2019-06-27T02:26:14.454Z,64.20
2019-06-27T02:31:18.132Z,64.30
2019-06-27T02:36:22.747Z,64.20
2019-06-27T02:41:26.129Z,64.20
2019-06-27T02:46:33.181Z,64.30
2019-06-27T02:51:34.428Z,64.40
2019-06-27T02:56:51.064Z,64.60
2019-06-27T03:01:52.303Z,64.60
2019-06-27T03:06:57.069Z,64.60
2019-06-27T03:12:04.201Z,64.50
2019-06-27T03:17:08.642Z,64.70
2019-06-27T03:22:13.181Z,64.70
2019-06-27T03:27:16.519Z,65.10
2019-06-27T03:32:21.017Z,65.30
2019-06-27T03:37:25.564Z,65.40
2019-06-27T03:42:27.374Z,65.50
2019-06-27T03:47:37.708Z,65.80
2019-06-27T03:52:42.298Z,66.10
2019-06-27T03:57:49.351Z,66.20
2019-06-27T04:02:50.823Z,66.10
2019-06-27T04:08:00.226Z,66.50
2019-06-27T04:13:10.593Z,66.70
2019-06-27T04:18:15.120Z,66.80
2019-06-27T04:23:18.415Z,67.00
2019-06-27T04:28:37.466Z,67.20
2019-06-27T04:33:42.656Z,67.20
2019-06-27T04:39:16.150Z,67.30
2019-06-27T04:44:24.843Z,67.40
2019-06-27T04:49:26.113Z,67.50
2019-06-27T04:54:27.435Z,67.50
2019-06-27T04:59:52.549Z,67.60
2019-06-27T05:04:42.724Z,67.80
2019-06-27T05:09:47.223Z,67.70
2019-06-27T05:14:50.764Z,67.50
2019-06-27T05:20:18.916Z,67.30
2019-06-27T05:25:23.280Z,67.10
2019-06-27T05:30:26.611Z,66.90
2019-06-27T05:35:32.673Z,66.80
2019-06-27T05:40:38.351Z,66.50
2019-06-27T05:45:59.114Z,65.00
2019-06-27T05:51:06.419Z,63.60
2019-06-27T05:56:07.688Z,62.30
2019-06-27T06:01:23.024Z,63.60
2019-06-27T06:06:27.560Z,64.90
2019-06-27T06:11:29.059Z,65.70
2019-06-27T06:16:36.586Z,65.80
2019-06-27T06:21:47.964Z,65.90
2019-06-27T06:26:53.169Z,65.70
2019-06-27T06:31:57.658Z,65.20
2019-06-27T06:37:08.114Z,64.90
2019-06-27T06:42:12.591Z,64.90
2019-06-27T06:47:15.017Z,65.00
2019-06-27T06:52:44.299Z,64.90
2019-06-27T06:57:48.629Z,64.90
2019-06-27T07:02:53.189Z,64.70
2019-06-27T07:07:57.703Z,64.80
2019-06-27T07:13:02.322Z,64.60
2019-06-27T07:18:03.870Z,64.30
2019-06-27T07:23:11.083Z,63.70
2019-06-27T07:28:12.491Z,63.00
2019-06-27T07:33:17.143Z,63.10
2019-06-27T07:38:19.454Z,63.10
2019-06-27T07:43:33.838Z,63.10
2019-06-27T07:48:38.376Z,62.30
2019-06-27T07:53:40.845Z,61.40
2019-06-27T07:58:48.297Z,60.50
2019-06-27T08:03:53.255Z,60.50
2019-06-27T08:08:56.543Z,60.60
2019-06-27T08:14:01.523Z,60.50
2019-06-27T08:19:09.004Z,60.40
2019-06-27T08:24:13.563Z,60.20
2019-06-27T08:29:46.520Z,59.70
2019-06-27T08:34:47.816Z,59.20
2019-06-27T08:39:52.563Z,58.80
2019-06-27T08:45:07.140Z,58.60
2019-06-27T08:50:21.618Z,58.10
2019-06-27T08:55:22.854Z,57.80
2019-06-27T09:00:27.658Z,57.80
2019-06-27T09:05:47.319Z,57.90
2019-06-27T09:10:51.973Z,57.10
2019-06-27T09:15:53.324Z,57.00
2019-06-27T09:20:57.877Z,56.80
2019-06-27T09:26:25.943Z,56.90
2019-06-27T09:31:33.249Z,56.60
2019-06-27T09:36:34.487Z,56.60
2019-06-27T09:41:39.087Z,56.50
2019-06-27T09:46:48.272Z,56.40
2019-06-27T09:51:52.770Z,56.00
2019-06-27T09:56:55.167Z,55.50
2019-06-27T10:01:57.555Z,55.20
2019-06-27T10:07:02.096Z,55.20
2019-06-27T10:12:05.405Z,55.10
2019-06-27T10:17:08.871Z,55.00
2019-06-27T10:22:13.973Z,54.80
2019-06-27T10:27:21.091Z,54.50
2019-06-27T10:32:25.436Z,54.40
2019-06-27T10:37:27.870Z,54.20
2019-06-27T10:42:32.392Z,53.80
2019-06-27T10:47:33.692Z,53.70
2019-06-27T10:52:37.204Z,53.30
2019-06-27T10:57:44.837Z,52.90
2019-06-27T11:02:46.324Z,52.60
2019-06-27T11:07:52.659Z,52.60
2019-06-27T11:12:59.801Z,52.70
2019-06-27T11:18:04.530Z,52.50
2019-06-27T11:23:06.127Z,52.20
2019-06-27T11:28:22.805Z,52.20
2019-06-27T11:33:41.681Z,52.20
2019-06-27T11:39:05.855Z,52.20
2019-06-27T11:44:07.261Z,52.00
2019-06-27T11:49:18.854Z,51.60
2019-06-27T11:54:28.173Z,51.60
2019-06-27T11:59:29.475Z,51.50
2019-06-27T12:04:31.832Z,51.30
2019-06-27T12:09:36.352Z,51.00
2019-06-27T12:14:40.841Z,51.40
2019-06-27T12:19:45.475Z,50.60
2019-06-27T12:24:49.999Z,50.50
2019-06-27T12:29:51.280Z,49.90
2019-06-27T12:34:58.390Z,50.00
2019-06-27T12:40:09.175Z,49.80
2019-06-27T12:45:15.740Z,49.50
2019-06-27T12:50:18.702Z,48.80
2019-06-27T12:55:20.355Z,48.70
2019-06-27T13:00:27.540Z,48.70
2019-06-27T13:05:32.191Z,48.70
2019-06-27T13:10:35.862Z,49.00
2019-06-27T13:15:43.529Z,48.20
2019-06-27T13:20:58.012Z,47.80
2019-06-27T13:25:57.126Z,47.40
2019-06-27T13:30:58.394Z,48.00
2019-06-27T13:35:59.747Z,47.20
2019-06-27T13:41:02.420Z,47.00
2019-06-27T13:46:07.311Z,46.40
2019-06-27T13:51:11.777Z,46.50
2019-06-27T13:56:16.336Z,46.40
2019-06-27T14:01:29.833Z,46.60
2019-06-27T14:06:34.368Z,46.40
2019-06-27T14:11:40.737Z,46.50
2019-06-27T14:16:51.442Z,46.20
2019-06-27T14:21:52.769Z,46.70
2019-06-27T14:27:04.714Z,46.20
2019-06-27T14:32:06.127Z,46.60
2019-06-27T14:37:09.609Z,46.20
2019-06-27T14:42:12.083Z,46.20
2019-06-27T14:47:13.423Z,45.80
2019-06-27T14:52:29.412Z,45.60
2019-06-27T14:57:34.896Z,45.90
2019-06-27T15:08:41.017Z,45.70
2019-06-27T15:13:44.312Z,45.40
2019-06-27T15:18:51.388Z,45.60
2019-06-27T15:23:52.774Z,45.40
2019-06-27T15:29:15.930Z,44.90
2019-06-27T15:34:23.405Z,45.10
2019-06-27T15:39:30.888Z,44.70
2019-06-27T15:44:32.087Z,44.40
2019-06-27T15:49:36.760Z,44.20
2019-06-27T15:54:39.191Z,44.40
2019-06-27T15:59:40.641Z,44.30
2019-06-27T16:04:42.056Z,44.30
2019-06-27T16:10:23.817Z,45.40
2019-06-27T16:15:25.063Z,45.10
2019-06-27T16:20:29.476Z,45.70
2019-06-27T16:25:31.832Z,46.60
2019-06-27T16:30:34.711Z,46.80
2019-06-27T16:35:43.994Z,46.90
2019-06-27T16:40:45.993Z,46.80
2019-06-27T16:45:49.800Z,46.60
2019-06-27T16:50:54.351Z,46.20
2019-06-27T16:56:07.752Z,46.00
2019-06-27T17:01:10.091Z,45.70
2019-06-27T17:06:14.642Z,45.60
2019-06-27T17:11:16.189Z,45.40
2019-06-27T17:16:28.707Z,45.30
2019-06-27T17:21:31.078Z,45.10
2019-06-27T17:26:35.622Z,45.00
2019-06-27T17:31:48.615Z,44.90
2019-06-27T17:36:57.356Z,44.90
2019-06-27T17:42:09.176Z,44.90
2019-06-27T17:47:16.548Z,44.90
2019-06-27T17:52:21.070Z,45.20
2019-06-27T17:57:22.468Z,45.30
2019-06-27T18:02:23.664Z,45.40
2019-06-27T18:07:30.160Z,45.70
2019-06-27T18:12:32.543Z,46.00
2019-06-27T18:17:34.304Z,46.90
2019-06-27T18:22:36.078Z,46.50
2019-06-27T18:27:37.473Z,46.70
2019-06-27T18:32:54.062Z,46.90
2019-06-27T18:37:56.445Z,47.00
2019-06-27T18:43:03.819Z,47.40
2019-06-27T18:48:05.139Z,47.50
2019-06-27T18:53:09.171Z,47.70
2019-06-27T18:58:11.827Z,47.90
2019-06-27T19:03:37.854Z,48.10
2019-06-27T19:08:39.299Z,48.20
2019-06-27T19:13:41.407Z,48.40
2019-06-27T19:18:54.667Z,48.70
2019-06-27T19:24:03.839Z,49.00
2019-06-27T19:29:09.050Z,49.20
2019-06-27T19:34:10.319Z,49.30
2019-06-27T19:39:12.741Z,49.60
2019-06-27T19:44:24.013Z,49.90
2019-06-27T19:49:28.556Z,50.20
2019-06-27T19:54:33.124Z,50.30
2019-06-27T19:59:40.488Z,50.70
2019-06-27T20:04:54.299Z,50.80
2019-06-27T20:09:55.641Z,51.00
2019-06-27T20:15:00.676Z,51.20
2019-06-27T20:20:22.114Z,51.40
2019-06-27T20:25:23.376Z,51.60
2019-06-27T20:30:28.428Z,51.90
2019-06-27T20:35:54.766Z,52.20
2019-06-27T20:41:08.354Z,52.30
2019-06-27T20:46:12.876Z,52.40
2019-06-27T20:51:21.204Z,52.50
2019-06-27T20:56:23.529Z,52.50
2019-06-27T21:01:26.855Z,52.40
2019-06-27T21:06:29.248Z,52.50
2019-06-27T21:11:32.578Z,52.50
2019-06-27T21:16:49.052Z,52.60
2019-06-27T21:21:53.613Z,52.70
2019-06-27T21:26:55.097Z,52.70
2019-06-27T21:32:31.147Z,52.80
2019-06-27T21:37:24.862Z,52.80
2019-06-27T21:42:26.094Z,52.90
2019-06-27T21:47:28.287Z,52.80
2019-06-27T21:52:37.432Z,53.00
2019-06-27T21:57:39.851Z,53.30
2019-06-27T22:02:44.384Z,53.30
2019-06-27T22:07:58.808Z,53.10
2019-06-27T22:13:00.040Z,53.20
2019-06-27T22:18:24.002Z,53.30
2019-06-27T22:23:25.308Z,53.60
2019-06-27T22:28:29.842Z,53.60
2019-06-27T22:33:34.373Z,53.80
2019-06-27T22:38:54.145Z,53.80
2019-06-27T22:44:44.098Z,54.00
2019-06-27T22:49:48.397Z,54.10
2019-06-27T22:54:51.578Z,54.10
2019-06-27T22:59:58.873Z,54.30
2019-06-27T23:05:00.153Z,54.20
2019-06-27T23:10:04.811Z,54.20
2019-06-27T23:15:08.854Z,54.40
2019-06-27T23:20:10.954Z,54.50
2019-06-27T23:25:15.392Z,54.40
2019-06-27T23:30:20.049Z,54.70
2019-06-27T23:35:21.288Z,54.90
2019-06-27T23:40:28.708Z,55.00
2019-06-27T23:45:31.182Z,55.10
2019-06-27T23:50:32.594Z,55.10
2019-06-27T23:55:37.458Z,55.10
